sensor_id;sensor_type;location;lat;lon;timestamp;P1;durP1;ratioP1;P2;durP2;ratioP2
76417;SDS011;65250;47.602;19.002;2022-12-29T00:00:59;20.93;;;7.40;;
76417;SDS011;65250;47.602;19.002;2022-12-29T00:03:27;15.90;;;7.90;;
76417;SDS011;65250;47.602;19.002;2022-12-29T00:05:56;15.73;;;7.68;;
76417;SDS011;65250;47.602;19.002;2022-12-29T00:08:24;16.58;;;8.57;;
76417;SDS011;65250;47.602;19.002;2022-12-29T00:11:07;16.30;;;7.93;;
76417;SDS011;65250;47.602;19.002;2022-12-29T00:13:36;14.17;;;8.17;;
76417;SDS011;65250;47.602;19.002;2022-12-29T00:16:22;15.73;;;8.40;;
76417;SDS011;65250;47.602;19.002;2022-12-29T00:18:50;16.45;;;7.85;;
76417;SDS011;65250;47.602;19.002;2022-12-29T00:21:19;19.73;;;8.45;;
76417;SDS011;65250;47.602;19.002;2022-12-29T00:24:08;15.20;;;8.10;;
76417;SDS011;65250;47.602;19.002;2022-12-29T00:26:42;21.93;;;9.10;;
76417;SDS011;65250;47.602;19.002;2022-12-29T00:29:27;14.82;;;8.02;;
76417;SDS011;65250;47.602;19.002;2022-12-29T00:32:13;18.30;;;8.43;;
76417;SDS011;65250;47.602;19.002;2022-12-29T00:34:59;15.15;;;7.53;;
76417;SDS011;65250;47.602;19.002;2022-12-29T00:37:40;14.90;;;7.53;;
76417;SDS011;65250;47.602;19.002;2022-12-29T00:40:28;16.90;;;8.27;;
76417;SDS011;65250;47.602;19.002;2022-12-29T00:43:14;15.05;;;7.47;;
76417;SDS011;65250;47.602;19.002;2022-12-29T00:46:00;15.13;;;8.00;;
76417;SDS011;65250;47.602;19.002;2022-12-29T00:48:27;17.00;;;7.38;;
76417;SDS011;65250;47.602;19.002;2022-12-29T00:51:14;14.93;;;7.35;;
76417;SDS011;65250;47.602;19.002;2022-12-29T00:53:44;16.43;;;7.93;;
76417;SDS011;65250;47.602;19.002;2022-12-29T00:56:12;14.93;;;7.80;;
76417;SDS011;65250;47.602;19.002;2022-12-29T00:58:39;15.88;;;7.57;;
76417;SDS011;65250;47.602;19.002;2022-12-29T01:01:07;17.48;;;7.68;;
76417;SDS011;65250;47.602;19.002;2022-12-29T01:03:36;15.30;;;7.80;;
76417;SDS011;65250;47.602;19.002;2022-12-29T01:06:05;13.53;;;6.43;;
76417;SDS011;65250;47.602;19.002;2022-12-29T01:08:34;18.48;;;8.38;;
76417;SDS011;65250;47.602;19.002;2022-12-29T01:13:31;15.70;;;7.55;;
76417;SDS011;65250;47.602;19.002;2022-12-29T01:15:58;15.45;;;7.60;;
76417;SDS011;65250;47.602;19.002;2022-12-29T01:18:26;14.00;;;7.70;;
76417;SDS011;65250;47.602;19.002;2022-12-29T01:21:01;13.75;;;7.72;;
76417;SDS011;65250;47.602;19.002;2022-12-29T01:23:32;15.43;;;7.47;;
76417;SDS011;65250;47.602;19.002;2022-12-29T01:26:09;15.23;;;7.95;;
76417;SDS011;65250;47.602;19.002;2022-12-29T01:28:38;16.10;;;7.55;;
76417;SDS011;65250;47.602;19.002;2022-12-29T01:31:07;19.87;;;7.97;;
76417;SDS011;65250;47.602;19.002;2022-12-29T01:33:40;16.33;;;8.13;;
76417;SDS011;65250;47.602;19.002;2022-12-29T01:36:09;21.00;;;8.25;;
76417;SDS011;65250;47.602;19.002;2022-12-29T01:38:40;20.10;;;8.98;;
76417;SDS011;65250;47.602;19.002;2022-12-29T01:41:08;15.88;;;8.05;;
76417;SDS011;65250;47.602;19.002;2022-12-29T01:43:42;16.67;;;7.70;;
76417;SDS011;65250;47.602;19.002;2022-12-29T01:46:19;18.10;;;7.93;;
76417;SDS011;65250;47.602;19.002;2022-12-29T01:49:16;14.75;;;7.55;;
76417;SDS011;65250;47.602;19.002;2022-12-29T01:51:58;16.88;;;7.43;;
76417;SDS011;65250;47.602;19.002;2022-12-29T01:54:32;16.40;;;8.07;;
76417;SDS011;65250;47.602;19.002;2022-12-29T01:57:08;15.13;;;7.17;;
76417;SDS011;65250;47.602;19.002;2022-12-29T01:59:41;14.93;;;7.10;;
76417;SDS011;65250;47.602;19.002;2022-12-29T02:02:12;15.23;;;7.70;;
76417;SDS011;65250;47.602;19.002;2022-12-29T02:04:40;16.45;;;7.88;;
76417;SDS011;65250;47.602;19.002;2022-12-29T02:07:19;15.05;;;7.10;;
76417;SDS011;65250;47.602;19.002;2022-12-29T02:09:48;15.17;;;7.37;;
76417;SDS011;65250;47.602;19.002;2022-12-29T02:12:17;16.42;;;7.60;;
76417;SDS011;65250;47.602;19.002;2022-12-29T02:14:47;12.93;;;6.57;;
76417;SDS011;65250;47.602;19.002;2022-12-29T02:25:32;13.68;;;6.57;;
76417;SDS011;65250;47.602;19.002;2022-12-29T02:36:42;19.17;;;8.33;;
76417;SDS011;65250;47.602;19.002;2022-12-29T02:39:21;19.40;;;8.65;;
76417;SDS011;65250;47.602;19.002;2022-12-29T02:42:03;20.02;;;8.27;;
76417;SDS011;65250;47.602;19.002;2022-12-29T02:47:41;20.35;;;8.40;;
76417;SDS011;65250;47.602;19.002;2022-12-29T02:50:31;20.03;;;9.00;;
76417;SDS011;65250;47.602;19.002;2022-12-29T02:53:04;15.95;;;9.40;;
76417;SDS011;65250;47.602;19.002;2022-12-29T02:55:34;24.08;;;9.30;;
76417;SDS011;65250;47.602;19.002;2022-12-29T02:58:20;14.93;;;8.63;;
76417;SDS011;65250;47.602;19.002;2022-12-29T03:15:23;16.13;;;8.85;;
76417;SDS011;65250;47.602;19.002;2022-12-29T03:18:24;20.67;;;8.87;;
76417;SDS011;65250;47.602;19.002;2022-12-29T03:20:59;16.58;;;9.18;;
76417;SDS011;65250;47.602;19.002;2022-12-29T03:23:29;16.00;;;8.23;;
76417;SDS011;65250;47.602;19.002;2022-12-29T03:25:58;19.33;;;9.23;;
76417;SDS011;65250;47.602;19.002;2022-12-29T03:28:30;16.38;;;8.05;;
76417;SDS011;65250;47.602;19.002;2022-12-29T03:31:02;18.00;;;8.77;;
76417;SDS011;65250;47.602;19.002;2022-12-29T03:33:30;17.20;;;9.05;;
76417;SDS011;65250;47.602;19.002;2022-12-29T03:36:00;18.20;;;8.20;;
76417;SDS011;65250;47.602;19.002;2022-12-29T03:38:35;21.13;;;8.38;;
76417;SDS011;65250;47.602;19.002;2022-12-29T03:41:07;16.85;;;8.10;;
76417;SDS011;65250;47.602;19.002;2022-12-29T03:43:36;15.37;;;8.13;;
76417;SDS011;65250;47.602;19.002;2022-12-29T03:46:04;17.15;;;8.52;;
76417;SDS011;65250;47.602;19.002;2022-12-29T03:48:33;19.65;;;9.57;;
76417;SDS011;65250;47.602;19.002;2022-12-29T03:51:00;16.55;;;8.43;;
76417;SDS011;65250;47.602;19.002;2022-12-29T03:53:28;18.27;;;9.88;;
76417;SDS011;65250;47.602;19.002;2022-12-29T03:55:55;17.07;;;8.97;;
76417;SDS011;65250;47.602;19.002;2022-12-29T03:58:23;20.23;;;9.18;;
76417;SDS011;65250;47.602;19.002;2022-12-29T04:00:50;19.00;;;9.02;;
76417;SDS011;65250;47.602;19.002;2022-12-29T04:03:18;23.48;;;9.48;;
76417;SDS011;65250;47.602;19.002;2022-12-29T04:05:46;19.38;;;9.02;;
76417;SDS011;65250;47.602;19.002;2022-12-29T04:08:14;14.83;;;8.57;;
76417;SDS011;65250;47.602;19.002;2022-12-29T04:10:42;19.35;;;10.00;;
76417;SDS011;65250;47.602;19.002;2022-12-29T04:13:10;16.38;;;9.40;;
76417;SDS011;65250;47.602;19.002;2022-12-29T04:15:38;19.08;;;9.93;;
76417;SDS011;65250;47.602;19.002;2022-12-29T04:18:06;16.95;;;9.43;;
76417;SDS011;65250;47.602;19.002;2022-12-29T04:20:33;19.07;;;9.33;;
76417;SDS011;65250;47.602;19.002;2022-12-29T04:23:20;16.50;;;9.40;;
76417;SDS011;65250;47.602;19.002;2022-12-29T04:25:48;19.25;;;9.93;;
76417;SDS011;65250;47.602;19.002;2022-12-29T04:28:16;16.77;;;8.82;;
76417;SDS011;65250;47.602;19.002;2022-12-29T04:30:44;16.65;;;8.65;;
76417;SDS011;65250;47.602;19.002;2022-12-29T04:33:12;17.60;;;9.93;;
76417;SDS011;65250;47.602;19.002;2022-12-29T04:35:40;19.88;;;9.45;;
76417;SDS011;65250;47.602;19.002;2022-12-29T04:38:08;17.55;;;9.32;;
76417;SDS011;65250;47.602;19.002;2022-12-29T04:40:40;18.73;;;8.88;;
76417;SDS011;65250;47.602;19.002;2022-12-29T04:43:09;19.48;;;9.98;;
76417;SDS011;65250;47.602;19.002;2022-12-29T04:45:37;22.93;;;9.60;;
76417;SDS011;65250;47.602;19.002;2022-12-29T04:48:04;17.60;;;9.32;;
76417;SDS011;65250;47.602;19.002;2022-12-29T04:50:32;18.20;;;9.50;;
76417;SDS011;65250;47.602;19.002;2022-12-29T04:53:00;18.27;;;9.73;;
76417;SDS011;65250;47.602;19.002;2022-12-29T04:55:28;20.10;;;10.15;;
76417;SDS011;65250;47.602;19.002;2022-12-29T04:57:55;21.83;;;9.93;;
76417;SDS011;65250;47.602;19.002;2022-12-29T05:00:23;22.70;;;10.68;;
76417;SDS011;65250;47.602;19.002;2022-12-29T05:02:51;20.02;;;10.80;;
76417;SDS011;65250;47.602;19.002;2022-12-29T05:05:19;18.42;;;9.23;;
76417;SDS011;65250;47.602;19.002;2022-12-29T05:07:47;23.40;;;10.40;;
76417;SDS011;65250;47.602;19.002;2022-12-29T05:10:15;19.77;;;9.90;;
76417;SDS011;65250;47.602;19.002;2022-12-29T05:12:44;20.30;;;9.50;;
76417;SDS011;65250;47.602;19.002;2022-12-29T05:15:12;19.88;;;9.98;;
76417;SDS011;65250;47.602;19.002;2022-12-29T05:17:40;19.33;;;10.75;;
76417;SDS011;65250;47.602;19.002;2022-12-29T05:20:08;25.27;;;10.82;;
76417;SDS011;65250;47.602;19.002;2022-12-29T05:22:36;20.73;;;10.27;;
76417;SDS011;65250;47.602;19.002;2022-12-29T05:25:04;18.08;;;10.07;;
76417;SDS011;65250;47.602;19.002;2022-12-29T05:27:32;20.00;;;10.50;;
76417;SDS011;65250;47.602;19.002;2022-12-29T05:29:59;21.77;;;9.73;;
76417;SDS011;65250;47.602;19.002;2022-12-29T05:32:27;19.90;;;9.63;;
76417;SDS011;65250;47.602;19.002;2022-12-29T05:34:55;22.60;;;10.60;;
76417;SDS011;65250;47.602;19.002;2022-12-29T05:37:22;19.05;;;9.85;;
76417;SDS011;65250;47.602;19.002;2022-12-29T05:39:50;21.52;;;11.15;;
76417;SDS011;65250;47.602;19.002;2022-12-29T05:42:17;22.40;;;10.98;;
76417;SDS011;65250;47.602;19.002;2022-12-29T05:44:45;22.40;;;12.05;;
76417;SDS011;65250;47.602;19.002;2022-12-29T05:47:13;24.53;;;10.67;;
76417;SDS011;65250;47.602;19.002;2022-12-29T05:49:40;25.23;;;10.70;;
76417;SDS011;65250;47.602;19.002;2022-12-29T05:52:08;24.10;;;10.85;;
76417;SDS011;65250;47.602;19.002;2022-12-29T05:54:36;20.77;;;10.43;;
76417;SDS011;65250;47.602;19.002;2022-12-29T05:57:04;23.92;;;11.35;;
76417;SDS011;65250;47.602;19.002;2022-12-29T05:59:32;22.00;;;10.77;;
76417;SDS011;65250;47.602;19.002;2022-12-29T06:01:59;20.55;;;10.52;;
76417;SDS011;65250;47.602;19.002;2022-12-29T06:04:27;21.38;;;10.40;;
76417;SDS011;65250;47.602;19.002;2022-12-29T06:06:55;25.77;;;11.27;;
76417;SDS011;65250;47.602;19.002;2022-12-29T06:09:22;19.20;;;10.45;;
76417;SDS011;65250;47.602;19.002;2022-12-29T06:11:50;22.17;;;10.53;;
76417;SDS011;65250;47.602;19.002;2022-12-29T06:14:18;20.85;;;10.57;;
76417;SDS011;65250;47.602;19.002;2022-12-29T06:16:45;21.27;;;10.80;;
76417;SDS011;65250;47.602;19.002;2022-12-29T06:19:13;22.83;;;10.80;;
76417;SDS011;65250;47.602;19.002;2022-12-29T06:21:40;21.52;;;10.45;;
76417;SDS011;65250;47.602;19.002;2022-12-29T06:24:08;24.03;;;11.30;;
76417;SDS011;65250;47.602;19.002;2022-12-29T06:26:38;18.13;;;10.00;;
76417;SDS011;65250;47.602;19.002;2022-12-29T06:29:07;17.77;;;10.23;;
76417;SDS011;65250;47.602;19.002;2022-12-29T06:31:35;21.30;;;11.13;;
76417;SDS011;65250;47.602;19.002;2022-12-29T06:34:03;24.08;;;11.70;;
76417;SDS011;65250;47.602;19.002;2022-12-29T06:36:34;19.33;;;10.60;;
76417;SDS011;65250;47.602;19.002;2022-12-29T06:39:02;21.70;;;11.18;;
76417;SDS011;65250;47.602;19.002;2022-12-29T06:41:30;20.80;;;11.48;;
76417;SDS011;65250;47.602;19.002;2022-12-29T06:43:59;24.45;;;11.73;;
76417;SDS011;65250;47.602;19.002;2022-12-29T06:46:27;27.63;;;11.90;;
76417;SDS011;65250;47.602;19.002;2022-12-29T06:48:54;24.87;;;11.60;;
76417;SDS011;65250;47.602;19.002;2022-12-29T06:51:22;24.73;;;11.90;;
76417;SDS011;65250;47.602;19.002;2022-12-29T06:53:50;27.05;;;11.93;;
76417;SDS011;65250;47.602;19.002;2022-12-29T06:56:18;23.73;;;11.68;;
76417;SDS011;65250;47.602;19.002;2022-12-29T06:58:46;21.65;;;11.75;;
76417;SDS011;65250;47.602;19.002;2022-12-29T07:01:14;22.30;;;11.33;;
76417;SDS011;65250;47.602;19.002;2022-12-29T07:03:42;23.38;;;12.43;;
76417;SDS011;65250;47.602;19.002;2022-12-29T07:06:10;26.88;;;12.00;;
76417;SDS011;65250;47.602;19.002;2022-12-29T07:08:37;22.92;;;11.60;;
76417;SDS011;65250;47.602;19.002;2022-12-29T07:11:06;27.75;;;12.60;;
76417;SDS011;65250;47.602;19.002;2022-12-29T07:13:33;21.90;;;11.13;;
76417;SDS011;65250;47.602;19.002;2022-12-29T07:16:05;23.55;;;12.30;;
76417;SDS011;65250;47.602;19.002;2022-12-29T07:18:33;22.08;;;11.10;;
76417;SDS011;65250;47.602;19.002;2022-12-29T07:21:02;21.40;;;11.05;;
76417;SDS011;65250;47.602;19.002;2022-12-29T07:23:30;22.50;;;11.40;;
76417;SDS011;65250;47.602;19.002;2022-12-29T07:25:59;23.30;;;12.27;;
76417;SDS011;65250;47.602;19.002;2022-12-29T07:28:27;22.73;;;10.88;;
76417;SDS011;65250;47.602;19.002;2022-12-29T07:30:55;23.85;;;12.52;;
76417;SDS011;65250;47.602;19.002;2022-12-29T07:33:23;25.40;;;11.95;;
76417;SDS011;65250;47.602;19.002;2022-12-29T07:35:51;27.77;;;13.50;;
76417;SDS011;65250;47.602;19.002;2022-12-29T07:38:18;31.33;;;13.97;;
76417;SDS011;65250;47.602;19.002;2022-12-29T07:40:46;29.20;;;13.90;;
76417;SDS011;65250;47.602;19.002;2022-12-29T07:43:14;27.05;;;12.95;;
76417;SDS011;65250;47.602;19.002;2022-12-29T07:45:42;27.52;;;13.48;;
76417;SDS011;65250;47.602;19.002;2022-12-29T07:48:09;26.83;;;13.40;;
76417;SDS011;65250;47.602;19.002;2022-12-29T07:50:37;32.57;;;14.13;;
76417;SDS011;65250;47.602;19.002;2022-12-29T07:53:05;27.42;;;12.65;;
76417;SDS011;65250;47.602;19.002;2022-12-29T07:55:32;26.90;;;13.07;;
76417;SDS011;65250;47.602;19.002;2022-12-29T07:58:00;28.55;;;13.68;;
76417;SDS011;65250;47.602;19.002;2022-12-29T08:00:28;25.60;;;13.35;;
76417;SDS011;65250;47.602;19.002;2022-12-29T08:02:56;27.17;;;13.80;;
76417;SDS011;65250;47.602;19.002;2022-12-29T08:05:24;27.95;;;14.00;;
76417;SDS011;65250;47.602;19.002;2022-12-29T08:07:52;27.33;;;14.18;;
76417;SDS011;65250;47.602;19.002;2022-12-29T08:10:20;30.15;;;13.68;;
76417;SDS011;65250;47.602;19.002;2022-12-29T08:12:48;27.85;;;13.25;;
76417;SDS011;65250;47.602;19.002;2022-12-29T08:15:16;30.53;;;13.60;;
76417;SDS011;65250;47.602;19.002;2022-12-29T08:17:43;25.10;;;13.27;;
76417;SDS011;65250;47.602;19.002;2022-12-29T08:20:11;24.50;;;13.10;;
76417;SDS011;65250;47.602;19.002;2022-12-29T08:22:39;28.00;;;14.38;;
76417;SDS011;65250;47.602;19.002;2022-12-29T08:25:07;26.40;;;14.40;;
76417;SDS011;65250;47.602;19.002;2022-12-29T08:27:35;29.73;;;14.53;;
76417;SDS011;65250;47.602;19.002;2022-12-29T08:30:03;27.52;;;12.90;;
76417;SDS011;65250;47.602;19.002;2022-12-29T08:32:31;24.80;;;13.32;;
76417;SDS011;65250;47.602;19.002;2022-12-29T08:34:59;24.23;;;13.18;;
76417;SDS011;65250;47.602;19.002;2022-12-29T08:37:28;21.48;;;11.63;;
76417;SDS011;65250;47.602;19.002;2022-12-29T08:39:57;24.97;;;12.60;;
76417;SDS011;65250;47.602;19.002;2022-12-29T08:42:25;19.50;;;12.32;;
76417;SDS011;65250;47.602;19.002;2022-12-29T08:44:58;24.35;;;13.63;;
76417;SDS011;65250;47.602;19.002;2022-12-29T08:47:26;27.60;;;13.60;;
76417;SDS011;65250;47.602;19.002;2022-12-29T08:49:54;25.83;;;12.85;;
76417;SDS011;65250;47.602;19.002;2022-12-29T08:52:22;24.80;;;12.80;;
76417;SDS011;65250;47.602;19.002;2022-12-29T08:54:50;21.48;;;12.80;;
76417;SDS011;65250;47.602;19.002;2022-12-29T08:57:18;22.38;;;12.50;;
76417;SDS011;65250;47.602;19.002;2022-12-29T08:59:46;23.65;;;12.45;;
76417;SDS011;65250;47.602;19.002;2022-12-29T09:02:13;23.52;;;12.88;;
76417;SDS011;65250;47.602;19.002;2022-12-29T09:04:50;23.83;;;11.63;;
76417;SDS011;65250;47.602;19.002;2022-12-29T09:07:18;21.67;;;12.48;;
76417;SDS011;65250;47.602;19.002;2022-12-29T09:09:46;21.88;;;12.73;;
76417;SDS011;65250;47.602;19.002;2022-12-29T09:12:14;25.85;;;13.07;;
76417;SDS011;65250;47.602;19.002;2022-12-29T09:14:43;24.10;;;12.57;;
76417;SDS011;65250;47.602;19.002;2022-12-29T09:17:11;23.23;;;12.13;;
76417;SDS011;65250;47.602;19.002;2022-12-29T09:19:57;26.42;;;13.02;;
76417;SDS011;65250;47.602;19.002;2022-12-29T09:22:25;24.92;;;14.00;;
76417;SDS011;65250;47.602;19.002;2022-12-29T09:24:53;24.50;;;13.85;;
76417;SDS011;65250;47.602;19.002;2022-12-29T09:27:21;25.10;;;13.35;;
76417;SDS011;65250;47.602;19.002;2022-12-29T09:29:48;30.27;;;14.20;;
76417;SDS011;65250;47.602;19.002;2022-12-29T09:32:16;23.58;;;13.40;;
76417;SDS011;65250;47.602;19.002;2022-12-29T09:34:44;24.08;;;13.00;;
76417;SDS011;65250;47.602;19.002;2022-12-29T09:37:12;22.02;;;12.10;;
76417;SDS011;65250;47.602;19.002;2022-12-29T09:39:40;27.25;;;14.18;;
76417;SDS011;65250;47.602;19.002;2022-12-29T09:47:39;22.23;;;14.05;;
76417;SDS011;65250;47.602;19.002;2022-12-29T09:50:20;25.42;;;15.10;;
76417;SDS011;65250;47.602;19.002;2022-12-29T09:55:43;25.53;;;14.77;;
76417;SDS011;65250;47.602;19.002;2022-12-29T09:58:19;23.80;;;14.68;;
76417;SDS011;65250;47.602;19.002;2022-12-29T10:00:54;27.15;;;14.88;;
76417;SDS011;65250;47.602;19.002;2022-12-29T10:03:30;21.30;;;13.70;;
76417;SDS011;65250;47.602;19.002;2022-12-29T10:09:11;23.27;;;13.53;;
76417;SDS011;65250;47.602;19.002;2022-12-29T10:22:35;20.97;;;12.73;;
76417;SDS011;65250;47.602;19.002;2022-12-29T10:25:20;22.95;;;13.57;;
76417;SDS011;65250;47.602;19.002;2022-12-29T10:27:56;23.08;;;13.43;;
76417;SDS011;65250;47.602;19.002;2022-12-29T10:30:24;21.40;;;14.38;;
76417;SDS011;65250;47.602;19.002;2022-12-29T10:32:56;26.75;;;14.75;;
76417;SDS011;65250;47.602;19.002;2022-12-29T10:35:28;23.47;;;14.43;;
76417;SDS011;65250;47.602;19.002;2022-12-29T10:38:03;23.88;;;14.00;;
76417;SDS011;65250;47.602;19.002;2022-12-29T10:43:32;24.92;;;15.00;;
76417;SDS011;65250;47.602;19.002;2022-12-29T10:46:06;22.98;;;14.43;;
76417;SDS011;65250;47.602;19.002;2022-12-29T10:48:38;25.47;;;15.23;;
76417;SDS011;65250;47.602;19.002;2022-12-29T10:51:06;25.65;;;15.20;;
76417;SDS011;65250;47.602;19.002;2022-12-29T10:53:45;24.77;;;15.57;;
76417;SDS011;65250;47.602;19.002;2022-12-29T10:59:06;23.58;;;14.98;;
76417;SDS011;65250;47.602;19.002;2022-12-29T11:02:12;23.87;;;16.03;;
76417;SDS011;65250;47.602;19.002;2022-12-29T11:07:15;22.90;;;15.35;;
76417;SDS011;65250;47.602;19.002;2022-12-29T11:09:50;25.27;;;15.30;;
76417;SDS011;65250;47.602;19.002;2022-12-29T11:15:11;24.40;;;15.23;;
76417;SDS011;65250;47.602;19.002;2022-12-29T11:17:45;23.33;;;15.57;;
76417;SDS011;65250;47.602;19.002;2022-12-29T11:20:27;24.00;;;14.93;;
76417;SDS011;65250;47.602;19.002;2022-12-29T11:22:57;24.70;;;15.13;;
76417;SDS011;65250;47.602;19.002;2022-12-29T11:25:26;28.52;;;16.65;;
76417;SDS011;65250;47.602;19.002;2022-12-29T11:28:02;26.87;;;14.97;;
76417;SDS011;65250;47.602;19.002;2022-12-29T11:30:32;27.58;;;14.45;;
76417;SDS011;65250;47.602;19.002;2022-12-29T11:33:02;24.15;;;16.17;;
76417;SDS011;65250;47.602;19.002;2022-12-29T11:35:33;26.35;;;15.07;;
76417;SDS011;65250;47.602;19.002;2022-12-29T11:38:02;24.88;;;15.52;;
76417;SDS011;65250;47.602;19.002;2022-12-29T11:40:31;26.33;;;16.20;;
76417;SDS011;65250;47.602;19.002;2022-12-29T11:43:00;24.80;;;15.05;;
76417;SDS011;65250;47.602;19.002;2022-12-29T11:45:35;23.90;;;15.10;;
76417;SDS011;65250;47.602;19.002;2022-12-29T11:48:13;22.23;;;14.55;;
76417;SDS011;65250;47.602;19.002;2022-12-29T11:50:50;28.95;;;16.02;;
76417;SDS011;65250;47.602;19.002;2022-12-29T11:53:20;22.60;;;14.50;;
76417;SDS011;65250;47.602;19.002;2022-12-29T11:55:54;25.50;;;15.65;;
76417;SDS011;65250;47.602;19.002;2022-12-29T11:58:29;25.20;;;15.40;;
76417;SDS011;65250;47.602;19.002;2022-12-29T12:04:15;22.75;;;14.55;;
76417;SDS011;65250;47.602;19.002;2022-12-29T12:09:30;24.40;;;14.98;;
76417;SDS011;65250;47.602;19.002;2022-12-29T12:12:00;23.52;;;15.52;;
76417;SDS011;65250;47.602;19.002;2022-12-29T12:14:30;26.15;;;15.55;;
76417;SDS011;65250;47.602;19.002;2022-12-29T12:17:12;28.25;;;15.77;;
76417;SDS011;65250;47.602;19.002;2022-12-29T12:25:09;27.52;;;16.13;;
76417;SDS011;65250;47.602;19.002;2022-12-29T12:27:46;23.23;;;15.13;;
76417;SDS011;65250;47.602;19.002;2022-12-29T12:30:17;26.52;;;15.73;;
76417;SDS011;65250;47.602;19.002;2022-12-29T12:32:54;27.80;;;16.07;;
76417;SDS011;65250;47.602;19.002;2022-12-29T12:35:36;26.45;;;16.17;;
76417;SDS011;65250;47.602;19.002;2022-12-29T12:41:13;24.90;;;16.52;;
76417;SDS011;65250;47.602;19.002;2022-12-29T12:43:54;24.60;;;16.10;;
76417;SDS011;65250;47.602;19.002;2022-12-29T13:00:28;31.40;;;17.77;;
76417;SDS011;65250;47.602;19.002;2022-12-29T13:06:15;28.80;;;18.10;;
76417;SDS011;65250;47.602;19.002;2022-12-29T13:22:19;25.98;;;17.17;;
76417;SDS011;65250;47.602;19.002;2022-12-29T13:31:42;26.50;;;16.40;;
76417;SDS011;65250;47.602;19.002;2022-12-29T13:33:47;27.42;;;17.95;;
76417;SDS011;65250;47.602;19.002;2022-12-29T13:36:34;27.08;;;15.77;;
76417;SDS011;65250;47.602;19.002;2022-12-29T13:39:16;30.20;;;18.30;;
76417;SDS011;65250;47.602;19.002;2022-12-29T13:41:51;26.00;;;15.67;;
76417;SDS011;65250;47.602;19.002;2022-12-29T13:47:04;24.70;;;16.35;;
76417;SDS011;65250;47.602;19.002;2022-12-29T13:49:40;25.45;;;16.23;;
76417;SDS011;65250;47.602;19.002;2022-12-29T13:54:44;31.40;;;17.97;;
76417;SDS011;65250;47.602;19.002;2022-12-29T14:00:18;32.58;;;18.90;;
76417;SDS011;65250;47.602;19.002;2022-12-29T14:02:55;28.40;;;17.50;;
76417;SDS011;65250;47.602;19.002;2022-12-29T14:05:37;32.28;;;17.60;;
76417;SDS011;65250;47.602;19.002;2022-12-29T14:08:05;31.43;;;17.27;;
76417;SDS011;65250;47.602;19.002;2022-12-29T14:13:03;29.88;;;18.20;;
76417;SDS011;65250;47.602;19.002;2022-12-29T14:15:42;31.95;;;17.92;;
76417;SDS011;65250;47.602;19.002;2022-12-29T14:20:52;31.13;;;17.47;;
76417;SDS011;65250;47.602;19.002;2022-12-29T14:23:29;31.55;;;17.70;;
76417;SDS011;65250;47.602;19.002;2022-12-29T14:26:11;34.65;;;18.10;;
76417;SDS011;65250;47.602;19.002;2022-12-29T14:28:41;31.27;;;17.55;;
76417;SDS011;65250;47.602;19.002;2022-12-29T14:36:34;34.17;;;16.50;;
76417;SDS011;65250;47.602;19.002;2022-12-29T14:47:25;30.17;;;16.43;;
76417;SDS011;65250;47.602;19.002;2022-12-29T14:50:07;30.45;;;16.63;;
76417;SDS011;65250;47.602;19.002;2022-12-29T14:55:44;32.70;;;16.27;;
76417;SDS011;65250;47.602;19.002;2022-12-29T15:00:42;30.23;;;16.67;;
76417;SDS011;65250;47.602;19.002;2022-12-29T15:03:20;32.38;;;17.10;;
76417;SDS011;65250;47.602;19.002;2022-12-29T15:08:39;29.70;;;16.40;;
76417;SDS011;65250;47.602;19.002;2022-12-29T15:11:18;30.08;;;16.45;;
76417;SDS011;65250;47.602;19.002;2022-12-29T15:13:47;31.03;;;17.07;;
76417;SDS011;65250;47.602;19.002;2022-12-29T15:18:52;31.67;;;16.10;;
76417;SDS011;65250;47.602;19.002;2022-12-29T15:21:22;35.70;;;17.38;;
76417;SDS011;65250;47.602;19.002;2022-12-29T15:23:53;30.67;;;16.80;;
76417;SDS011;65250;47.602;19.002;2022-12-29T15:26:21;32.53;;;16.83;;
76417;SDS011;65250;47.602;19.002;2022-12-29T15:28:50;31.92;;;17.33;;
76417;SDS011;65250;47.602;19.002;2022-12-29T15:31:22;34.30;;;17.90;;
76417;SDS011;65250;47.602;19.002;2022-12-29T15:34:10;33.72;;;17.95;;
76417;SDS011;65250;47.602;19.002;2022-12-29T15:36:39;36.33;;;18.23;;
76417;SDS011;65250;47.602;19.002;2022-12-29T15:39:18;39.00;;;17.50;;
76417;SDS011;65250;47.602;19.002;2022-12-29T15:41:48;38.25;;;18.15;;
76417;SDS011;65250;47.602;19.002;2022-12-29T15:44:37;39.20;;;19.08;;
76417;SDS011;65250;47.602;19.002;2022-12-29T15:47:20;37.78;;;17.58;;
76417;SDS011;65250;47.602;19.002;2022-12-29T15:49:50;33.47;;;18.10;;
76417;SDS011;65250;47.602;19.002;2022-12-29T15:52:21;41.67;;;19.97;;
76417;SDS011;65250;47.602;19.002;2022-12-29T15:54:50;37.40;;;18.75;;
76417;SDS011;65250;47.602;19.002;2022-12-29T15:57:23;37.47;;;18.73;;
76417;SDS011;65250;47.602;19.002;2022-12-29T15:59:55;37.72;;;18.80;;
76417;SDS011;65250;47.602;19.002;2022-12-29T16:02:23;38.50;;;19.40;;
76417;SDS011;65250;47.602;19.002;2022-12-29T16:04:51;39.50;;;19.17;;
76417;SDS011;65250;47.602;19.002;2022-12-29T16:07:39;38.40;;;17.90;;
76417;SDS011;65250;47.602;19.002;2022-12-29T16:10:32;39.67;;;18.92;;
76417;SDS011;65250;47.602;19.002;2022-12-29T16:13:18;41.53;;;19.23;;
76417;SDS011;65250;47.602;19.002;2022-12-29T16:15:46;34.80;;;17.52;;
76417;SDS011;65250;47.602;19.002;2022-12-29T16:18:24;37.77;;;19.03;;
76417;SDS011;65250;47.602;19.002;2022-12-29T16:20:53;38.53;;;18.08;;
76417;SDS011;65250;47.602;19.002;2022-12-29T16:23:23;36.83;;;18.55;;
76417;SDS011;65250;47.602;19.002;2022-12-29T16:25:52;37.88;;;18.08;;
76417;SDS011;65250;47.602;19.002;2022-12-29T16:28:22;37.72;;;18.52;;
76417;SDS011;65250;47.602;19.002;2022-12-29T16:30:57;35.03;;;17.40;;
76417;SDS011;65250;47.602;19.002;2022-12-29T16:38:48;36.30;;;16.80;;
76417;SDS011;65250;47.602;19.002;2022-12-29T16:41:28;35.58;;;19.38;;
76417;SDS011;65250;47.602;19.002;2022-12-29T16:44:12;35.53;;;18.30;;
76417;SDS011;65250;47.602;19.002;2022-12-29T16:47:32;33.72;;;17.25;;
76417;SDS011;65250;47.602;19.002;2022-12-29T16:49:40;38.40;;;18.30;;
76417;SDS011;65250;47.602;19.002;2022-12-29T16:52:14;36.75;;;18.23;;
76417;SDS011;65250;47.602;19.002;2022-12-29T16:54:54;40.08;;;18.63;;
76417;SDS011;65250;47.602;19.002;2022-12-29T16:57:35;42.57;;;17.57;;
76417;SDS011;65250;47.602;19.002;2022-12-29T17:00:04;38.75;;;19.13;;
76417;SDS011;65250;47.602;19.002;2022-12-29T17:02:34;35.88;;;18.13;;
76417;SDS011;65250;47.602;19.002;2022-12-29T17:05:15;39.00;;;18.20;;
76417;SDS011;65250;47.602;19.002;2022-12-29T17:07:44;35.83;;;17.55;;
76417;SDS011;65250;47.602;19.002;2022-12-29T17:10:11;39.87;;;18.70;;
76417;SDS011;65250;47.602;19.002;2022-12-29T17:12:43;41.97;;;19.25;;
76417;SDS011;65250;47.602;19.002;2022-12-29T17:17:42;41.35;;;19.45;;
76417;SDS011;65250;47.602;19.002;2022-12-29T17:22:44;36.10;;;18.00;;
76417;SDS011;65250;47.602;19.002;2022-12-29T17:25:15;32.28;;;16.48;;
76417;SDS011;65250;47.602;19.002;2022-12-29T17:27:46;42.15;;;20.17;;
76417;SDS011;65250;47.602;19.002;2022-12-29T17:30:15;41.50;;;20.63;;